Terminal Aerodrome Forecast
Issued by NWS Upton, NY

Home | Current Version | Previous Version | Text Only | Print | Product List | Glossary On
Versions: 1 2 3 4 5 6 7 8 9 10 11 12 13 14 15 16 17 18 19 20 21 22 23 24 25 26 27 28
000
FTUS41 KOKX 052200 AAB
TAFEWR
TAF AMD
KEWR 052200Z 0522/0624 15008KT P6SM SCT070 BKN110
     FM060100 VRB05KT P6SM SCT050 BKN080
     FM061000 05009KT P6SM SCT050 BKN080
     FM061800 09008KT P6SM SCT050 BKN080=

USA.gov is the U.S. government's official web portal to all federal, state and local government web resources and services.